Airfield :
LOGIN :

Register | Disclaimer

   EN    FR    IT 

 










Legend :    VFR   Marginal VFR   IFR   Intensive IFR   Very Intensive IFR
Visi :
Ceiling :
>= 8 km
>= 3000ft
5 to 8 km
1000 to 3000 ft
1500m to 5 km
500 to 1000 ft
800 to 1500m
200 to 500 ft
< 800m
< 200 ft
Symbols :   Thunderstorms  Fog  Heavy snow  Heavy precipitations  Wind > 20 kt
SIGMETs :     Misc.  Thunderstorms  Icing  Turbulence  Mountain Waves  Volcanic Ashes






- Airport Elevation : 45 ft
- IATA code : CEG


EGNR - Hawarden Chester

EXPIRED METARs :
  • 271750Z 18008KT 9000 SCT027 08/06 Q1007
  • 271720Z 17010KT 9000 SCT027 09/07 Q1007
  • 271650Z 16012KT 9000 SCT027 09/07 Q1008

TAF TAF EGNR
Valid from the 27 at 18:00 until the 27 at 21:00 UTC


271659Z 2718/2721 17009KT 9999 SCT030
TEMPO 2718/2721 9000



MET'MAP, your aeronautical weather chart ! - Copyright ORBIFLY December 2007 - Disclaimer

ORBIFLY MET'MAP TEAM :

Programming & Development : Alexandra Zaïnal
Original concept : Baudouin d'Aumeries
Technical & hardware support : Manuel Goepfert
Assistance : Marc-Olivier Méhu




SOURCES & CREDITS :

   NOAA